sensor_id;sensor_type;location;lat;lon;timestamp;pressure;altitude;pressure_sealevel;temperature;humidity
14885;BME280;7534;50.762;7.000;2023-01-30T00:01:33;89002.91;;;-143.16;66.32
14885;BME280;7534;50.762;7.000;2023-01-30T00:03:59;88835.31;;;-143.16;66.46
14885;BME280;7534;50.762;7.000;2023-01-30T00:06:25;88835.31;;;-143.16;66.40
14885;BME280;7534;50.762;7.000;2023-01-30T00:08:51;88863.59;;;-143.16;67.31
14885;BME280;7534;50.762;7.000;2023-01-30T00:11:19;88843.41;;;-143.16;67.30
14885;BME280;7534;50.762;7.000;2023-01-30T00:13:47;88817.16;;;-143.16;67.54
14885;BME280;7534;50.762;7.000;2023-01-30T00:16:15;88883.78;;;-143.16;67.35
14885;BME280;7534;50.762;7.000;2023-01-30T00:18:41;88857.53;;;-143.16;67.24
14885;BME280;7534;50.762;7.000;2023-01-30T00:21:10;88859.53;;;-143.16;66.98
14885;BME280;7534;50.762;7.000;2023-01-30T00:23:37;88811.09;;;-143.16;66.69
14885;BME280;7534;50.762;7.000;2023-01-30T00:26:04;88706.09;;;-143.16;66.19
14885;BME280;7534;50.762;7.000;2023-01-30T00:28:31;88843.41;;;-143.16;66.02
14885;BME280;7534;50.762;7.000;2023-01-30T00:30:57;88837.34;;;-143.16;65.89
14885;BME280;7534;50.762;7.000;2023-01-30T00:33:25;88867.63;;;-143.16;66.17
14885;BME280;7534;50.762;7.000;2023-01-30T00:35:54;88788.88;;;-143.16;66.29
14885;BME280;7534;50.762;7.000;2023-01-30T00:38:21;88772.72;;;-143.16;66.30
14885;BME280;7534;50.762;7.000;2023-01-30T00:40:47;88792.91;;;-143.16;66.36
14885;BME280;7534;50.762;7.000;2023-01-30T00:43:16;88730.31;;;-143.16;66.23
14885;BME280;7534;50.762;7.000;2023-01-30T00:46:22;88815.13;;;-143.16;66.52
14885;BME280;7534;50.762;7.000;2023-01-30T00:49:07;89188.66;;;-143.16;66.40
14885;BME280;7534;50.762;7.000;2023-01-30T00:51:33;88833.28;;;-143.16;66.42
14885;BME280;7534;50.762;7.000;2023-01-30T00:53:59;88825.22;;;-143.16;65.97
14885;BME280;7534;50.762;7.000;2023-01-30T00:56:24;88845.41;;;-143.16;65.86
14885;BME280;7534;50.762;7.000;2023-01-30T00:58:50;88746.47;;;-143.16;65.83
14885;BME280;7534;50.762;7.000;2023-01-30T01:01:15;89061.47;;;-143.16;65.82
14885;BME280;7534;50.762;7.000;2023-01-30T01:03:41;88738.41;;;-143.16;65.77
14885;BME280;7534;50.762;7.000;2023-01-30T01:06:07;88807.06;;;-143.16;65.56
14885;BME280;7534;50.762;7.000;2023-01-30T01:08:32;88673.78;;;-143.16;66.32
14885;BME280;7534;50.762;7.000;2023-01-30T01:10:58;88772.72;;;-143.16;66.65
14885;BME280;7534;50.762;7.000;2023-01-30T01:13:24;88718.22;;;-143.16;66.66
14885;BME280;7534;50.762;7.000;2023-01-30T01:15:50;88934.25;;;-143.16;66.43
14885;BME280;7534;50.762;7.000;2023-01-30T01:18:15;88603.13;;;-143.16;66.23
14885;BME280;7534;50.762;7.000;2023-01-30T01:20:41;88746.47;;;-143.16;66.13
14885;BME280;7534;50.762;7.000;2023-01-30T01:23:09;88708.13;;;-143.16;66.19
14885;BME280;7534;50.762;7.000;2023-01-30T01:25:35;89008.97;;;-143.16;66.41
14885;BME280;7534;50.762;7.000;2023-01-30T01:28:01;88683.91;;;-143.16;66.57
14885;BME280;7534;50.762;7.000;2023-01-30T01:30:27;88671.78;;;-143.16;66.88
14885;BME280;7534;50.762;7.000;2023-01-30T01:32:52;88774.75;;;-143.16;67.14
14885;BME280;7534;50.762;7.000;2023-01-30T01:35:18;88792.91;;;-143.16;67.18
14885;BME280;7534;50.762;7.000;2023-01-30T01:37:44;88790.91;;;-143.16;67.13
14885;BME280;7534;50.762;7.000;2023-01-30T01:40:18;88786.84;;;-143.16;66.85
14885;BME280;7534;50.762;7.000;2023-01-30T01:43:20;88740.44;;;-143.16;67.19
14885;BME280;7534;50.762;7.000;2023-01-30T01:45:51;88742.44;;;-143.16;67.63
14885;BME280;7534;50.762;7.000;2023-01-30T01:48:29;88655.63;;;-143.16;67.10
14885;BME280;7534;50.762;7.000;2023-01-30T01:51:02;88766.66;;;-143.16;67.04
14885;BME280;7534;50.762;7.000;2023-01-30T01:53:39;88758.59;;;-143.16;67.26
14885;BME280;7534;50.762;7.000;2023-01-30T01:56:07;88798.97;;;-143.16;67.33
14885;BME280;7534;50.762;7.000;2023-01-30T01:59:03;88796.94;;;-143.16;67.41
14885;BME280;7534;50.762;7.000;2023-01-30T02:01:30;88786.84;;;-143.16;67.31
14885;BME280;7534;50.762;7.000;2023-01-30T02:04:02;88710.13;;;-143.16;67.04
14885;BME280;7534;50.762;7.000;2023-01-30T02:06:29;88803.00;;;-143.16;67.37
14885;BME280;7534;50.762;7.000;2023-01-30T02:09:05;88679.84;;;-143.16;67.50
14885;BME280;7534;50.762;7.000;2023-01-30T02:11:47;88794.94;;;-143.16;67.32
14885;BME280;7534;50.762;7.000;2023-01-30T02:14:16;88750.53;;;-143.16;67.18
14885;BME280;7534;50.762;7.000;2023-01-30T02:16:45;88784.84;;;-143.16;67.22
14885;BME280;7534;50.762;7.000;2023-01-30T02:19:44;88790.91;;;-143.16;67.18
14885;BME280;7534;50.762;7.000;2023-01-30T02:22:35;88623.31;;;-143.16;67.00
14885;BME280;7534;50.762;7.000;2023-01-30T02:28:46;88760.63;;;-143.16;67.07
14885;BME280;7534;50.762;7.000;2023-01-30T02:36:51;88778.78;;;-143.16;66.46
14885;BME280;7534;50.762;7.000;2023-01-30T02:42:23;88742.44;;;-143.16;66.40
14885;BME280;7534;50.762;7.000;2023-01-30T02:45:27;88891.84;;;-143.16;66.34
14885;BME280;7534;50.762;7.000;2023-01-30T02:48:02;89002.91;;;-143.16;65.91
14885;BME280;7534;50.762;7.000;2023-01-30T02:50:45;88629.38;;;-143.16;65.85
14885;BME280;7534;50.762;7.000;2023-01-30T02:53:13;88645.53;;;-143.16;66.15
14885;BME280;7534;50.762;7.000;2023-01-30T02:55:41;88685.91;;;-143.16;66.29
14885;BME280;7534;50.762;7.000;2023-01-30T02:58:07;89027.13;;;-143.16;66.25
14885;BME280;7534;50.762;7.000;2023-01-30T03:01:01;88681.88;;;-143.16;66.40
14885;BME280;7534;50.762;7.000;2023-01-30T03:03:54;88754.56;;;-143.16;66.67
14885;BME280;7534;50.762;7.000;2023-01-30T03:06:57;88714.19;;;-143.16;66.86
14885;BME280;7534;50.762;7.000;2023-01-30T03:09:50;88837.34;;;-143.16;67.47
14885;BME280;7534;50.762;7.000;2023-01-30T03:12:40;88726.28;;;-143.16;67.92
14885;BME280;7534;50.762;7.000;2023-01-30T03:15:16;88748.50;;;-143.16;68.71
14885;BME280;7534;50.762;7.000;2023-01-30T03:17:47;88679.84;;;-143.16;69.18
14885;BME280;7534;50.762;7.000;2023-01-30T03:20:15;88768.69;;;-143.16;69.62
14885;BME280;7534;50.762;7.000;2023-01-30T03:22:43;88716.19;;;-143.16;69.96
14885;BME280;7534;50.762;7.000;2023-01-30T03:25:14;88778.78;;;-143.16;69.82
14885;BME280;7534;50.762;7.000;2023-01-30T03:27:43;88641.50;;;-143.16;69.92
14885;BME280;7534;50.762;7.000;2023-01-30T03:30:10;88677.84;;;-143.16;69.88
14885;BME280;7534;50.762;7.000;2023-01-30T03:32:36;88605.16;;;-143.16;69.86
14885;BME280;7534;50.762;7.000;2023-01-30T03:35:01;88685.91;;;-143.16;70.33
14885;BME280;7534;50.762;7.000;2023-01-30T03:37:27;88849.44;;;-143.16;70.16
14885;BME280;7534;50.762;7.000;2023-01-30T03:39:53;88736.38;;;-143.16;69.93
14885;BME280;7534;50.762;7.000;2023-01-30T03:42:18;88809.06;;;-143.16;69.52
14885;BME280;7534;50.762;7.000;2023-01-30T03:44:44;88714.19;;;-143.16;69.06
14885;BME280;7534;50.762;7.000;2023-01-30T03:47:10;88691.97;;;-143.16;68.89
14885;BME280;7534;50.762;7.000;2023-01-30T03:49:35;88738.41;;;-143.16;69.01
14885;BME280;7534;50.762;7.000;2023-01-30T03:52:01;88716.19;;;-143.16;68.56
14885;BME280;7534;50.762;7.000;2023-01-30T03:54:26;88950.41;;;-143.16;68.32
14885;BME280;7534;50.762;7.000;2023-01-30T03:56:52;88698.03;;;-143.16;68.15
14885;BME280;7534;50.762;7.000;2023-01-30T03:59:18;88556.69;;;-143.16;68.35
14885;BME280;7534;50.762;7.000;2023-01-30T04:01:43;88411.34;;;-143.16;68.57
14885;BME280;7534;50.762;7.000;2023-01-30T04:04:09;88673.78;;;-143.16;68.32
14885;BME280;7534;50.762;7.000;2023-01-30T04:06:35;89176.56;;;-143.16;68.41
14885;BME280;7534;50.762;7.000;2023-01-30T04:09:00;88706.09;;;-143.16;68.24
14885;BME280;7534;50.762;7.000;2023-01-30T04:11:26;88683.91;;;-143.16;68.18
14885;BME280;7534;50.762;7.000;2023-01-30T04:13:51;88706.09;;;-143.16;67.89
14885;BME280;7534;50.762;7.000;2023-01-30T04:16:24;88770.72;;;-143.16;67.89
14885;BME280;7534;50.762;7.000;2023-01-30T04:18:50;88649.56;;;-143.16;68.06
14885;BME280;7534;50.762;7.000;2023-01-30T04:21:15;88710.13;;;-143.16;68.06
14885;BME280;7534;50.762;7.000;2023-01-30T04:23:41;88645.53;;;-143.16;67.89
14885;BME280;7534;50.762;7.000;2023-01-30T04:26:08;88617.25;;;-143.16;67.55
14885;BME280;7534;50.762;7.000;2023-01-30T04:28:34;88710.13;;;-143.16;67.70
14885;BME280;7534;50.762;7.000;2023-01-30T04:31:01;88732.34;;;-143.16;67.86
14885;BME280;7534;50.762;7.000;2023-01-30T04:33:27;88659.66;;;-143.16;68.24
14885;BME280;7534;50.762;7.000;2023-01-30T04:35:58;88750.53;;;-143.16;67.77
14885;BME280;7534;50.762;7.000;2023-01-30T04:38:27;88750.53;;;-143.16;67.96
14885;BME280;7534;50.762;7.000;2023-01-30T04:40:55;88694.00;;;-143.16;67.97
14885;BME280;7534;50.762;7.000;2023-01-30T04:43:23;88750.53;;;-143.16;68.07
14885;BME280;7534;50.762;7.000;2023-01-30T04:45:51;88665.72;;;-143.16;68.24
14885;BME280;7534;50.762;7.000;2023-01-30T04:48:19;88663.69;;;-143.16;68.49
14885;BME280;7534;50.762;7.000;2023-01-30T04:50:48;88730.31;;;-143.16;68.36
14885;BME280;7534;50.762;7.000;2023-01-30T04:53:16;88605.16;;;-143.16;68.99
14885;BME280;7534;50.762;7.000;2023-01-30T04:55:42;88605.16;;;-143.16;69.37
14885;BME280;7534;50.762;7.000;2023-01-30T04:58:08;88665.72;;;-143.16;68.70
14885;BME280;7534;50.762;7.000;2023-01-30T05:00:33;89021.06;;;-143.16;69.16
14885;BME280;7534;50.762;7.000;2023-01-30T05:02:59;88659.66;;;-143.16;69.91
14885;BME280;7534;50.762;7.000;2023-01-30T05:05:26;88679.84;;;-143.16;69.52
14885;BME280;7534;50.762;7.000;2023-01-30T05:07:53;88718.22;;;-143.16;69.35
14885;BME280;7534;50.762;7.000;2023-01-30T05:10:19;88740.44;;;-143.16;69.03
14885;BME280;7534;50.762;7.000;2023-01-30T05:12:46;88722.25;;;-143.16;69.50
14885;BME280;7534;50.762;7.000;2023-01-30T05:15:13;88776.75;;;-143.16;69.56
14885;BME280;7534;50.762;7.000;2023-01-30T05:17:39;88671.78;;;-143.16;69.76
14885;BME280;7534;50.762;7.000;2023-01-30T05:20:07;88669.75;;;-143.16;69.99
14885;BME280;7534;50.762;7.000;2023-01-30T05:22:34;88631.41;;;-143.16;70.11
14885;BME280;7534;50.762;7.000;2023-01-30T05:24:59;88653.59;;;-143.16;70.32
14885;BME280;7534;50.762;7.000;2023-01-30T05:27:25;88742.44;;;-143.16;70.34
14885;BME280;7534;50.762;7.000;2023-01-30T05:29:51;88734.38;;;-143.16;70.85
14885;BME280;7534;50.762;7.000;2023-01-30T05:32:18;88891.84;;;-143.16;71.41
14885;BME280;7534;50.762;7.000;2023-01-30T05:34:46;88750.53;;;-143.16;71.96
14885;BME280;7534;50.762;7.000;2023-01-30T05:37:12;88702.06;;;-143.16;73.17
14885;BME280;7534;50.762;7.000;2023-01-30T05:39:38;88752.53;;;-143.16;74.42
14885;BME280;7534;50.762;7.000;2023-01-30T05:42:04;88722.25;;;-143.16;74.87
14885;BME280;7534;50.762;7.000;2023-01-30T05:44:30;88685.91;;;-143.16;75.08
14885;BME280;7534;50.762;7.000;2023-01-30T05:46:56;88766.66;;;-143.16;75.67
14885;BME280;7534;50.762;7.000;2023-01-30T05:49:22;88627.38;;;-143.16;76.35
14885;BME280;7534;50.762;7.000;2023-01-30T05:54:14;88722.25;;;-143.16;76.84
14885;BME280;7534;50.762;7.000;2023-01-30T05:56:39;88714.19;;;-143.16;77.35
14885;BME280;7534;50.762;7.000;2023-01-30T05:59:05;88756.56;;;-143.16;77.34
14885;BME280;7534;50.762;7.000;2023-01-30T06:01:31;88798.97;;;-143.16;77.51
14885;BME280;7534;50.762;7.000;2023-01-30T06:03:57;88714.19;;;-143.16;78.31
14885;BME280;7534;50.762;7.000;2023-01-30T06:06:24;88742.44;;;-143.16;78.62
14885;BME280;7534;50.762;7.000;2023-01-30T06:08:56;88831.28;;;-143.16;78.92
14885;BME280;7534;50.762;7.000;2023-01-30T06:11:23;88784.84;;;-143.16;78.69
14885;BME280;7534;50.762;7.000;2023-01-30T06:13:49;88774.75;;;-143.16;78.98
14885;BME280;7534;50.762;7.000;2023-01-30T06:16:17;88720.22;;;-143.16;78.96
14885;BME280;7534;50.762;7.000;2023-01-30T06:18:43;88760.63;;;-143.16;78.54
14885;BME280;7534;50.762;7.000;2023-01-30T06:21:09;88760.63;;;-143.16;78.70
14885;BME280;7534;50.762;7.000;2023-01-30T06:23:35;88722.25;;;-143.16;78.48
14885;BME280;7534;50.762;7.000;2023-01-30T06:26:01;88702.06;;;-143.16;78.27
14885;BME280;7534;50.762;7.000;2023-01-30T06:28:27;88689.94;;;-143.16;78.10
14885;BME280;7534;50.762;7.000;2023-01-30T06:30:52;88730.31;;;-143.16;77.87
14885;BME280;7534;50.762;7.000;2023-01-30T06:33:19;88762.63;;;-143.16;77.44
14885;BME280;7534;50.762;7.000;2023-01-30T06:35:48;88716.19;;;-143.16;77.83
14885;BME280;7534;50.762;7.000;2023-01-30T06:38:14;88744.47;;;-143.16;77.69
14885;BME280;7534;50.762;7.000;2023-01-30T06:40:44;88768.69;;;-143.16;77.46
14885;BME280;7534;50.762;7.000;2023-01-30T06:43:11;88809.06;;;-143.16;77.44
14885;BME280;7534;50.762;7.000;2023-01-30T06:45:36;88649.56;;;-143.16;77.41
14885;BME280;7534;50.762;7.000;2023-01-30T06:48:02;88704.09;;;-143.16;76.82
14885;BME280;7534;50.762;7.000;2023-01-30T06:50:29;88748.50;;;-143.16;76.68
14885;BME280;7534;50.762;7.000;2023-01-30T06:52:57;88714.19;;;-143.16;76.37
14885;BME280;7534;50.762;7.000;2023-01-30T06:55:25;88807.06;;;-143.16;76.37
14885;BME280;7534;50.762;7.000;2023-01-30T06:58:08;88663.69;;;-143.16;76.42
14885;BME280;7534;50.762;7.000;2023-01-30T07:00:35;88742.44;;;-143.16;76.37
14885;BME280;7534;50.762;7.000;2023-01-30T07:03:04;88748.50;;;-143.16;76.88
14885;BME280;7534;50.762;7.000;2023-01-30T07:05:30;88665.72;;;-143.16;76.53
14885;BME280;7534;50.762;7.000;2023-01-30T07:07:55;88722.25;;;-143.16;76.42
14885;BME280;7534;50.762;7.000;2023-01-30T07:10:22;88718.22;;;-143.16;76.21
14885;BME280;7534;50.762;7.000;2023-01-30T07:12:49;88698.03;;;-143.16;76.05
14885;BME280;7534;50.762;7.000;2023-01-30T07:15:15;88700.03;;;-143.16;76.24
14885;BME280;7534;50.762;7.000;2023-01-30T07:17:40;88770.72;;;-143.16;76.76
14885;BME280;7534;50.762;7.000;2023-01-30T07:20:08;88780.81;;;-143.16;76.92
14885;BME280;7534;50.762;7.000;2023-01-30T07:22:34;88706.09;;;-143.16;77.04
14885;BME280;7534;50.762;7.000;2023-01-30T07:24:59;88625.34;;;-143.16;77.29
14885;BME280;7534;50.762;7.000;2023-01-30T07:27:27;88657.66;;;-143.16;77.57
14885;BME280;7534;50.762;7.000;2023-01-30T07:29:53;88669.75;;;-143.16;77.72
14885;BME280;7534;50.762;7.000;2023-01-30T07:32:19;88689.94;;;-143.16;77.45
14885;BME280;7534;50.762;7.000;2023-01-30T07:34:46;88609.19;;;-143.16;77.44
14885;BME280;7534;50.762;7.000;2023-01-30T07:37:11;88726.28;;;-143.16;77.27
14885;BME280;7534;50.762;7.000;2023-01-30T07:39:37;88746.47;;;-143.16;77.54
14885;BME280;7534;50.762;7.000;2023-01-30T07:42:03;88685.91;;;-143.16;77.83
14885;BME280;7534;50.762;7.000;2023-01-30T07:44:30;88726.28;;;-143.16;78.05
14885;BME280;7534;50.762;7.000;2023-01-30T07:46:55;88728.31;;;-143.16;77.96
14885;BME280;7534;50.762;7.000;2023-01-30T07:49:21;88736.38;;;-143.16;77.92
14885;BME280;7534;50.762;7.000;2023-01-30T07:51:47;88683.91;;;-143.16;77.71
14885;BME280;7534;50.762;7.000;2023-01-30T07:54:12;88704.09;;;-143.16;77.44
14885;BME280;7534;50.762;7.000;2023-01-30T07:56:38;88702.06;;;-143.16;77.27
14885;BME280;7534;50.762;7.000;2023-01-30T07:59:04;88851.47;;;-143.16;76.60
14885;BME280;7534;50.762;7.000;2023-01-30T08:01:30;88706.09;;;-143.16;77.10
14885;BME280;7534;50.762;7.000;2023-01-30T08:03:57;88704.09;;;-143.16;77.21
14885;BME280;7534;50.762;7.000;2023-01-30T08:06:23;88720.22;;;-143.16;77.67
14885;BME280;7534;50.762;7.000;2023-01-30T08:08:49;88706.09;;;-143.16;78.21
14885;BME280;7534;50.762;7.000;2023-01-30T08:11:15;88730.31;;;-143.16;78.94
14885;BME280;7534;50.762;7.000;2023-01-30T08:13:40;88712.16;;;-143.16;80.06
14885;BME280;7534;50.762;7.000;2023-01-30T08:16:07;88740.44;;;-143.16;80.40
14885;BME280;7534;50.762;7.000;2023-01-30T08:18:34;88730.31;;;-143.16;81.17
14885;BME280;7534;50.762;7.000;2023-01-30T08:21:04;88716.19;;;-143.16;81.54
14885;BME280;7534;50.762;7.000;2023-01-30T08:23:32;88712.16;;;-143.16;81.62
14885;BME280;7534;50.762;7.000;2023-01-30T08:26:01;88748.50;;;-143.16;81.38
14885;BME280;7534;50.762;7.000;2023-01-30T08:28:28;88698.03;;;-143.16;81.30
14885;BME280;7534;50.762;7.000;2023-01-30T08:30:55;88720.22;;;-143.16;81.75
14885;BME280;7534;50.762;7.000;2023-01-30T08:33:22;88710.13;;;-143.16;81.85
14885;BME280;7534;50.762;7.000;2023-01-30T08:35:48;88734.38;;;-143.16;81.43
14885;BME280;7534;50.762;7.000;2023-01-30T08:38:15;88625.34;;;-143.16;81.64
14885;BME280;7534;50.762;7.000;2023-01-30T08:40:41;88708.13;;;-143.16;81.30
14885;BME280;7534;50.762;7.000;2023-01-30T08:43:07;88649.56;;;-143.16;81.36
14885;BME280;7534;50.762;7.000;2023-01-30T08:45:33;88764.66;;;-143.16;80.99
14885;BME280;7534;50.762;7.000;2023-01-30T08:48:01;88708.13;;;-143.16;79.97
14885;BME280;7534;50.762;7.000;2023-01-30T08:50:27;88724.28;;;-143.16;79.47
14885;BME280;7534;50.762;7.000;2023-01-30T08:52:54;88696.00;;;-143.16;78.98
14885;BME280;7534;50.762;7.000;2023-01-30T08:55:20;88665.72;;;-143.16;78.47
14885;BME280;7534;50.762;7.000;2023-01-30T08:57:47;88639.47;;;-143.16;77.70
14885;BME280;7534;50.762;7.000;2023-01-30T09:00:14;88661.69;;;-143.16;76.72
14885;BME280;7534;50.762;7.000;2023-01-30T09:02:40;88619.28;;;-143.16;77.49
14885;BME280;7534;50.762;7.000;2023-01-30T09:05:07;88580.94;;;-143.16;74.88
14885;BME280;7534;50.762;7.000;2023-01-30T09:07:35;88512.28;;;-143.16;71.17
14885;BME280;7534;50.762;7.000;2023-01-30T09:10:02;88522.38;;;-143.16;68.81
14885;BME280;7534;50.762;7.000;2023-01-30T09:12:28;88445.66;;;-143.16;67.35
14885;BME280;7534;50.762;7.000;2023-01-30T09:14:53;88512.28;;;-143.16;65.49
14885;BME280;7534;50.762;7.000;2023-01-30T09:17:22;88475.94;;;-143.16;65.07
14885;BME280;7534;50.762;7.000;2023-01-30T09:19:48;88572.84;;;-143.16;64.05
14885;BME280;7534;50.762;7.000;2023-01-30T09:22:15;88540.53;;;-143.16;61.96
14885;BME280;7534;50.762;7.000;2023-01-30T09:24:40;88453.75;;;-143.16;62.60
14885;BME280;7534;50.762;7.000;2023-01-30T09:27:06;88431.53;;;-143.16;61.64
14885;BME280;7534;50.762;7.000;2023-01-30T09:29:32;88399.22;;;-143.16;59.83
14885;BME280;7534;50.762;7.000;2023-01-30T09:31:57;88344.72;;;-143.16;57.74
14885;BME280;7534;50.762;7.000;2023-01-30T09:34:25;88381.06;;;-143.16;57.42
14885;BME280;7534;50.762;7.000;2023-01-30T09:36:57;88308.38;;;-143.16;56.08
14885;BME280;7534;50.762;7.000;2023-01-30T09:39:28;88332.63;;;-143.16;55.86
14885;BME280;7534;50.762;7.000;2023-01-30T09:46:10;88330.59;;;-143.16;57.01
14885;BME280;7534;50.762;7.000;2023-01-30T09:51:41;88346.75;;;-143.16;59.81
14885;BME280;7534;50.762;7.000;2023-01-30T09:54:16;88393.19;;;-143.16;59.41
14885;BME280;7534;50.762;7.000;2023-01-30T09:56:58;88274.06;;;-143.16;58.83
14885;BME280;7534;50.762;7.000;2023-01-30T09:59:36;88379.03;;;-143.16;57.64
14885;BME280;7534;50.762;7.000;2023-01-30T10:02:34;88508.25;;;-143.16;57.59
14885;BME280;7534;50.762;7.000;2023-01-30T10:05:01;88479.97;;;-143.16;59.15
14885;BME280;7534;50.762;7.000;2023-01-30T10:13:27;88453.75;;;-143.16;58.98
14885;BME280;7534;50.762;7.000;2023-01-30T10:16:24;88589.00;;;-143.16;58.98
14885;BME280;7534;50.762;7.000;2023-01-30T10:19:24;88459.78;;;-143.16;59.49
14885;BME280;7534;50.762;7.000;2023-01-30T10:22:32;88475.94;;;-143.16;59.34
14885;BME280;7534;50.762;7.000;2023-01-30T10:28:15;88496.13;;;-143.16;60.37
14885;BME280;7534;50.762;7.000;2023-01-30T10:30:51;88516.31;;;-143.16;60.17
14885;BME280;7534;50.762;7.000;2023-01-30T10:33:53;88522.38;;;-143.16;58.99
14885;BME280;7534;50.762;7.000;2023-01-30T10:36:31;88520.34;;;-143.16;58.77
14885;BME280;7534;50.762;7.000;2023-01-30T10:39:01;88500.16;;;-143.16;58.25
14885;BME280;7534;50.762;7.000;2023-01-30T10:41:46;88477.97;;;-143.16;56.93
14885;BME280;7534;50.762;7.000;2023-01-30T10:44:16;88522.38;;;-143.16;56.75
14885;BME280;7534;50.762;7.000;2023-01-30T10:49:43;88498.16;;;-143.16;55.48
14885;BME280;7534;50.762;7.000;2023-01-30T10:52:37;88419.41;;;-143.16;55.17
14885;BME280;7534;50.762;7.000;2023-01-30T10:55:27;88445.66;;;-143.16;54.98
14885;BME280;7534;50.762;7.000;2023-01-30T10:58:31;88370.97;;;-143.16;54.34
14885;BME280;7534;50.762;7.000;2023-01-30T11:01:06;88395.19;;;-143.16;54.47
14885;BME280;7534;50.762;7.000;2023-01-30T11:03:56;88399.22;;;-143.16;53.52
14885;BME280;7534;50.762;7.000;2023-01-30T11:06:25;88413.38;;;-143.16;53.39
14885;BME280;7534;50.762;7.000;2023-01-30T11:08:53;88441.63;;;-143.16;52.76
14885;BME280;7534;50.762;7.000;2023-01-30T11:11:28;88439.59;;;-143.16;52.62
14885;BME280;7534;50.762;7.000;2023-01-30T11:14:09;88439.59;;;-143.16;52.76
14885;BME280;7534;50.762;7.000;2023-01-30T11:19:20;88431.53;;;-143.16;52.34
14885;BME280;7534;50.762;7.000;2023-01-30T11:21:54;88419.41;;;-143.16;52.21
14885;BME280;7534;50.762;7.000;2023-01-30T11:24:31;88451.72;;;-143.16;52.74
14885;BME280;7534;50.762;7.000;2023-01-30T11:27:16;88441.63;;;-143.16;52.80
14885;BME280;7534;50.762;7.000;2023-01-30T11:29:42;88484.03;;;-143.16;51.94
14885;BME280;7534;50.762;7.000;2023-01-30T11:32:28;88484.03;;;-143.16;51.77
14885;BME280;7534;50.762;7.000;2023-01-30T11:37:37;88443.66;;;-143.16;52.83
14885;BME280;7534;50.762;7.000;2023-01-30T11:43:04;88453.75;;;-143.16;53.03
14885;BME280;7534;50.762;7.000;2023-01-30T11:45:40;88415.38;;;-143.16;52.80
14885;BME280;7534;50.762;7.000;2023-01-30T11:48:20;88375.00;;;-143.16;53.16
14885;BME280;7534;50.762;7.000;2023-01-30T11:50:54;88453.75;;;-143.16;53.22
14885;BME280;7534;50.762;7.000;2023-01-30T11:53:46;88490.06;;;-143.16;53.27
14885;BME280;7534;50.762;7.000;2023-01-30T11:59:27;88496.13;;;-143.16;54.16
14885;BME280;7534;50.762;7.000;2023-01-30T12:02:30;88512.28;;;-143.16;54.24
14885;BME280;7534;50.762;7.000;2023-01-30T12:05:16;88500.16;;;-143.16;54.15
14885;BME280;7534;50.762;7.000;2023-01-30T12:07:44;88467.88;;;-143.16;54.18
14885;BME280;7534;50.762;7.000;2023-01-30T12:10:29;88415.38;;;-143.16;53.31
14885;BME280;7534;50.762;7.000;2023-01-30T12:13:01;88419.41;;;-143.16;53.45
14885;BME280;7534;50.762;7.000;2023-01-30T12:15:34;88431.53;;;-143.16;53.30
14885;BME280;7534;50.762;7.000;2023-01-30T12:18:37;88453.75;;;-143.16;52.38
14885;BME280;7534;50.762;7.000;2023-01-30T12:21:17;88429.50;;;-143.16;53.07
14885;BME280;7534;50.762;7.000;2023-01-30T12:23:55;88447.69;;;-143.16;52.82
14885;BME280;7534;50.762;7.000;2023-01-30T12:26:39;88383.09;;;-143.16;52.35
14885;BME280;7534;50.762;7.000;2023-01-30T12:29:33;88415.38;;;-143.16;52.16
14885;BME280;7534;50.762;7.000;2023-01-30T12:32:17;88427.50;;;-143.16;51.98
14885;BME280;7534;50.762;7.000;2023-01-30T12:34:45;88465.84;;;-143.16;51.79
14885;BME280;7534;50.762;7.000;2023-01-30T12:37:59;88451.72;;;-143.16;52.75
14885;BME280;7534;50.762;7.000;2023-01-30T12:41:14;88479.97;;;-143.16;53.37
14885;BME280;7534;50.762;7.000;2023-01-30T12:44:12;88473.94;;;-143.16;53.94
14885;BME280;7534;50.762;7.000;2023-01-30T12:47:30;88524.41;;;-143.16;54.09
14885;BME280;7534;50.762;7.000;2023-01-30T12:53:08;88568.81;;;-143.16;53.90
14885;BME280;7534;50.762;7.000;2023-01-30T12:55:47;88504.22;;;-143.16;53.28
14885;BME280;7534;50.762;7.000;2023-01-30T12:58:58;88500.16;;;-143.16;53.37
14885;BME280;7534;50.762;7.000;2023-01-30T13:02:05;88528.44;;;-143.16;53.85
14885;BME280;7534;50.762;7.000;2023-01-30T13:10:32;88498.16;;;-143.16;55.05
14885;BME280;7534;50.762;7.000;2023-01-30T13:13:19;88516.31;;;-143.16;54.46
14885;BME280;7534;50.762;7.000;2023-01-30T13:22:34;88580.94;;;-143.16;53.55
14885;BME280;7534;50.762;7.000;2023-01-30T13:25:32;88512.28;;;-143.16;53.78
14885;BME280;7534;50.762;7.000;2023-01-30T13:28:11;88546.59;;;-143.16;53.14
14885;BME280;7534;50.762;7.000;2023-01-30T13:30:40;88427.50;;;-143.16;52.57
14885;BME280;7534;50.762;7.000;2023-01-30T13:33:13;88465.84;;;-143.16;52.57
14885;BME280;7534;50.762;7.000;2023-01-30T13:36:04;88328.56;;;-143.16;52.20
14885;BME280;7534;50.762;7.000;2023-01-30T13:38:39;88465.84;;;-143.16;51.69
14885;BME280;7534;50.762;7.000;2023-01-30T13:41:11;88492.09;;;-143.16;51.72
14885;BME280;7534;50.762;7.000;2023-01-30T13:43:50;88524.41;;;-143.16;51.55
14885;BME280;7534;50.762;7.000;2023-01-30T13:46:25;88437.59;;;-143.16;51.30
14885;BME280;7534;50.762;7.000;2023-01-30T13:49:08;88562.75;;;-143.16;51.09
14885;BME280;7534;50.762;7.000;2023-01-30T13:51:47;88502.19;;;-143.16;51.65
14885;BME280;7534;50.762;7.000;2023-01-30T13:57:21;88506.22;;;-143.16;51.02
14885;BME280;7534;50.762;7.000;2023-01-30T14:02:27;88451.72;;;-143.16;51.56
14885;BME280;7534;50.762;7.000;2023-01-30T14:04:55;88482.00;;;-143.16;51.64
14885;BME280;7534;50.762;7.000;2023-01-30T14:12:47;88520.34;;;-143.16;51.15
14885;BME280;7534;50.762;7.000;2023-01-30T14:18:18;88445.66;;;-143.16;50.90
14885;BME280;7534;50.762;7.000;2023-01-30T14:20:48;88536.50;;;-143.16;50.68
14885;BME280;7534;50.762;7.000;2023-01-30T14:23:25;88403.28;;;-143.16;50.83
14885;BME280;7534;50.762;7.000;2023-01-30T14:25:55;88443.66;;;-143.16;51.48
14885;BME280;7534;50.762;7.000;2023-01-30T14:30:54;88488.06;;;-143.16;51.05
14885;BME280;7534;50.762;7.000;2023-01-30T14:33:33;88502.19;;;-143.16;50.31